Time;durP1;ratioP1;P1;durP2;ratioP2;P2;SDS_P1;SDS_P2;PMS_P1;PMS_P2;Temp;Humidity;BMP_temperature;BMP_pressure;BME280_temperature;BME280_humidity;BME280_pressure;Samples;Min_cycle;Max_cycle;Signal;HPM_P1;HPM_P2
2021/05/24 00:02:35;;;;;;;0.20;0.20;;;;;;;7.40;79.61;100953.69;5041362;28;20036;-84
2021/05/24 00:05:04;;;;;;;0.20;0.20;;;;;;;7.33;79.68;100955.72;5037567;28;20060;-83
2021/05/24 00:07:37;;;;;;;0.30;0.30;;;;;;;7.35;79.31;100952.78;5034285;28;20421;-83
2021/05/24 00:10:39;;;;;;;0.88;0.60;;;;;;;7.40;80.02;100952.84;5035033;28;20056;-83
2021/05/24 00:13:15;;;;;;;0.30;0.30;;;;;;;7.38;79.74;100950.38;5037109;28;20049;-83
2021/05/24 00:15:50;;;;;;;0.30;0.30;;;;;;;7.37;80.16;100951.44;5034888;28;20513;-83
2021/05/24 00:18:19;;;;;;;0.43;0.43;;;;;;;7.39;79.99;100946.63;5033568;28;20053;-84
2021/05/24 00:20:54;;;;;;;0.57;0.55;;;;;;;7.39;79.46;100948.50;5033749;28;20053;-83
2021/05/24 00:23:23;;;;;;;0.20;0.20;;;;;;;7.51;77.51;100942.97;5032879;28;20064;-84
2021/05/24 00:25:56;;;;;;;0.25;0.25;;;;;;;7.44;78.39;100945.84;5033294;28;20049;-84
2021/05/24 00:29:23;;;;;;;0.30;0.30;;;;;;;7.40;79.35;100948.25;5033855;28;20050;-84
2021/05/24 00:31:56;;;;;;;0.43;0.43;;;;;;;7.31;79.25;100934.31;5032780;28;20045;-84
2021/05/24 00:35:20;;;;;;;0.38;0.35;;;;;;;7.40;78.94;100928.47;5041507;28;20044;-85
2021/05/24 00:37:48;;;;;;;0.75;0.73;;;;;;;7.37;79.35;100926.28;5054843;28;20056;-84
2021/05/24 00:40:22;;;;;;;0.22;0.22;;;;;;;7.37;78.38;100929.78;5053364;28;20398;-85
2021/05/24 00:42:55;;;;;;;0.25;0.25;;;;;;;7.34;79.46;100927.59;5052998;28;20045;-84
2021/05/24 00:45:24;;;;;;;0.25;0.25;;;;;;;7.25;79.22;100923.69;5054515;28;20045;-84
2021/05/24 00:47:57;;;;;;;0.77;0.70;;;;;;;7.22;79.21;100919.63;5053411;28;20052;-84
2021/05/24 00:50:30;;;;;;;0.45;0.40;;;;;;;7.27;78.73;100924.25;5042691;28;20049;-84
2021/05/24 00:53:03;;;;;;;1.17;0.38;;;;;;;7.18;79.76;100904.94;5032944;28;20057;-85
2021/05/24 00:55:36;;;;;;;0.25;0.25;;;;;;;7.24;80.16;100905.81;5033096;28;20049;-84
2021/05/24 00:58:05;;;;;;;0.30;0.30;;;;;;;7.13;79.66;100866.97;5032849;28;20053;-84
2021/05/24 01:04:35;;;;;;;0.50;0.50;;;;;;;7.33;79.99;100879.94;5053065;28;20404;-84
2021/05/24 01:07:08;;;;;;;0.30;0.30;;;;;;;7.25;79.31;100872.25;5053249;28;20402;-84
2021/05/24 01:13:47;;;;;;;0.30;0.30;;;;;;;7.41;79.86;100884.09;5044214;28;20575;-84
2021/05/24 01:16:15;;;;;;;0.20;0.20;;;;;;;7.31;79.02;100858.53;5056630;28;20447;-84
2021/05/24 01:18:47;;;;;;;0.20;0.20;;;;;;;7.37;79.53;100864.00;5057535;28;20045;-84
2021/05/24 01:25:49;;;;;;;0.20;0.20;;;;;;;7.35;79.45;100858.84;5040536;28;20038;-84
2021/05/24 01:28:22;;;;;;;0.40;0.40;;;;;;;7.37;79.41;100853.19;5039979;28;20040;-83
2021/05/24 01:30:55;;;;;;;0.30;0.30;;;;;;;7.34;79.83;100853.69;5071260;28;20053;-84
2021/05/24 01:33:28;;;;;;;0.40;0.40;;;;;;;7.38;78.12;100854.81;5063995;28;20044;-84
2021/05/24 01:36:01;;;;;;;0.10;0.10;;;;;;;7.38;78.62;100855.63;5062161;28;20053;-83
2021/05/24 01:38:37;;;;;;;0.40;0.40;;;;;;;7.29;80.25;100847.16;5048590;28;20052;-84
2021/05/24 01:41:07;;;;;;;0.43;0.43;;;;;;;7.17;79.63;100835.63;5052222;28;20045;-83
2021/05/24 01:43:40;;;;;;;0.20;0.20;;;;;;;7.38;79.21;100857.53;5052055;28;20060;-83
2021/05/24 01:46:08;;;;;;;0.25;0.25;;;;;;;7.37;79.21;100845.06;5060314;28;20052;-84
2021/05/24 01:48:41;;;;;;;0.30;0.30;;;;;;;7.35;78.74;100839.91;5060917;28;20048;-84
2021/05/24 01:51:14;;;;;;;0.20;0.20;;;;;;;7.34;79.52;100849.09;5038389;28;20042;-84
2021/05/24 01:53:41;;;;;;;0.30;0.30;;;;;;;7.38;79.28;100849.41;5042031;28;20059;-84
2021/05/24 01:56:15;;;;;;;0.30;0.28;;;;;;;7.39;79.74;100851.00;5071366;28;20052;-84
2021/05/24 01:58:48;;;;;;;0.30;0.30;;;;;;;7.29;78.26;100830.06;5051879;28;20067;-83
2021/05/24 02:01:15;;;;;;;;;;;;;;;7.34;78.97;100842.88;5054177;28;20405;-83
2021/05/24 02:03:45;;;;;;;0.30;0.30;;;;;;;7.40;78.22;100841.81;5052928;28;20386;-83
2021/05/24 02:06:13;;;;;;;0.20;0.20;;;;;;;7.46;78.73;100844.34;5051490;28;20052;-83
2021/05/24 02:08:46;;;;;;;0.10;0.10;;;;;;;7.32;79.21;100843.13;5032685;28;20057;-83
2021/05/24 02:11:19;;;;;;;0.30;0.30;;;;;;;7.18;80.24;100831.88;5058802;28;20507;-83
2021/05/24 02:13:48;;;;;;;0.65;0.43;;;;;;;7.28;79.34;100840.09;5043370;28;20044;-84
2021/05/24 02:16:29;;;;;;;0.30;0.30;;;;;;;7.25;80.56;100839.78;5071544;28;20523;-84
2021/05/24 02:19:02;;;;;;;0.30;0.30;;;;;;;7.19;79.24;100836.19;5071407;28;20057;-83
2021/05/24 02:25:06;;;;;;;0.30;0.30;;;;;;;7.12;79.76;100836.38;5072656;28;20400;-83
2021/05/24 02:27:40;;;;;;;0.20;0.20;;;;;;;7.11;80.20;100825.81;5057119;28;20048;-83
2021/05/24 02:30:15;;;;;;;0.22;0.22;;;;;;;7.15;80.34;100840.47;5031736;28;20421;-83
2021/05/24 02:32:43;;;;;;;0.55;0.43;;;;;;;7.13;80.77;100829.91;5055982;28;20048;-83
2021/05/24 02:39:42;;;;;;;0.20;0.20;;;;;;;7.09;80.56;100830.66;5066469;28;20051;-84
2021/05/24 02:42:09;;;;;;;;;;;;;;;7.06;79.72;100833.88;5071065;28;20055;-84
2021/05/24 02:44:43;;;;;;;0.43;0.30;;;;;;;7.04;80.43;100839.53;5044482;28;19947;-84
2021/05/24 02:47:11;;;;;;;0.40;0.40;;;;;;;6.90;79.90;100822.03;5058233;28;20064;-84
2021/05/24 02:49:52;;;;;;;0.30;0.30;;;;;;;6.97;79.34;100831.63;5069623;28;20040;-83
2021/05/24 02:52:25;;;;;;;0.57;0.57;;;;;;;6.89;78.98;100818.53;5057117;28;20045;-84
2021/05/24 02:54:52;;;;;;;;;;;;;;;7.01;79.95;100817.59;5069891;28;20496;-84
2021/05/24 02:57:25;;;;;;;0.20;0.20;;;;;;;6.99;80.99;100817.84;5041450;28;19920;-84
2021/05/24 02:59:54;;;;;;;0.38;0.38;;;;;;;6.99;80.10;100815.13;5071132;28;20060;-84
2021/05/24 03:02:27;;;;;;;0.55;0.45;;;;;;;7.01;80.32;100807.56;5056534;28;20075;-83
2021/05/24 03:04:56;;;;;;;0.30;0.30;;;;;;;6.99;79.73;100807.00;5044751;28;20045;-83
2021/05/24 03:07:28;;;;;;;0.50;0.50;;;;;;;6.91;80.57;100797.44;5054936;28;20045;-83
2021/05/24 03:10:01;;;;;;;0.40;0.40;;;;;;;6.99;80.10;100809.72;5037944;28;20061;-83
2021/05/24 03:12:34;;;;;;;0.30;0.30;;;;;;;7.00;80.46;100811.34;5040652;28;20401;-83
2021/05/24 03:19:20;;;;;;;0.30;0.30;;;;;;;6.95;80.05;100805.88;5067355;28;20044;-84
2021/05/24 03:26:18;;;;;;;0.32;0.32;;;;;;;7.05;79.74;100819.53;5042817;28;20048;-83
2021/05/24 03:28:51;;;;;;;0.30;0.30;;;;;;;7.07;80.24;100813.84;5034736;28;20064;-84
2021/05/24 03:31:23;;;;;;;0.20;0.20;;;;;;;6.99;78.88;100790.78;5046686;28;20048;-84
2021/05/24 03:34:13;;;;;;;0.30;0.30;;;;;;;7.12;79.28;100811.22;5067846;28;20052;-84
2021/05/24 03:36:46;;;;;;;0.32;0.32;;;;;;;7.08;78.67;100816.31;5052343;28;20044;-83
2021/05/24 03:39:14;;;;;;;0.30;0.30;;;;;;;7.10;77.84;100806.06;5072582;28;20056;-83
2021/05/24 03:41:47;;;;;;;0.20;0.20;;;;;;;7.12;78.07;100800.38;5071254;28;20056;-84
2021/05/24 03:44:20;;;;;;;0.38;0.38;;;;;;;7.09;78.68;100806.31;5056309;28;20052;-83
2021/05/24 03:46:53;;;;;;;0.43;0.40;;;;;;;7.15;77.95;100813.41;5059618;28;20037;-84
2021/05/24 03:49:25;;;;;;;0.35;0.35;;;;;;;7.09;79.46;100798.19;5058528;28;20048;-84
2021/05/24 03:55:29;;;;;;;0.20;0.20;;;;;;;7.18;77.77;100804.81;5074035;28;20049;-83
2021/05/24 03:58:02;;;;;;;0.45;0.45;;;;;;;7.37;76.47;100807.16;5073450;28;20052;-83
2021/05/24 04:00:30;;;;;;;0.30;0.30;;;;;;;7.36;77.99;100798.22;5075149;28;20048;-84
2021/05/24 04:03:04;;;;;;;0.30;0.30;;;;;;;7.52;77.68;100810.00;5059460;28;20045;-84
2021/05/24 04:05:39;;;;;;;0.20;0.20;;;;;;;7.52;77.35;100803.78;5060629;28;20056;-83
2021/05/24 04:08:11;;;;;;;0.30;0.30;;;;;;;7.47;76.10;100799.13;5067739;28;20040;-83
2021/05/24 04:10:50;;;;;;;0.20;0.20;;;;;;;7.52;77.46;100791.03;5073557;28;20043;-83
2021/05/24 04:13:18;;;;;;;0.38;0.38;;;;;;;7.42;78.21;100774.72;5061577;28;20071;-84
2021/05/24 04:15:50;;;;;;;0.60;0.47;;;;;;;7.49;76.64;100788.84;5047484;28;20053;-84
2021/05/24 04:18:24;;;;;;;;;;;;;;;7.58;78.68;100809.00;5053568;28;20051;-83
2021/05/24 04:20:57;;;;;;;0.20;0.20;;;;;;;7.64;77.11;100799.03;5068699;28;19920;-83
2021/05/24 04:23:56;;;;;;;;;;;;;;;7.64;78.11;100802.53;5047734;28;20049;-84
2021/05/24 04:26:30;;;;;;;0.30;0.30;;;;;;;7.69;78.07;100804.47;5044505;28;19921;-83
2021/05/24 04:28:58;;;;;;;0.20;0.20;;;;;;;7.75;77.95;100795.31;5049855;28;20057;-83
2021/05/24 04:31:32;;;;;;;0.20;0.20;;;;;;;7.81;77.07;100793.47;5033045;28;20061;-83
2021/05/24 04:34:04;;;;;;;0.32;0.32;;;;;;;7.81;78.14;100786.16;5033810;28;20049;-83
2021/05/24 04:36:46;;;;;;;0.30;0.30;;;;;;;7.93;77.79;100783.28;5056890;28;20037;-83
2021/05/24 04:39:19;;;;;;;0.40;0.40;;;;;;;7.67;78.19;100736.19;5048454;28;20042;-83
2021/05/24 04:41:49;;;;;;;0.25;0.25;;;;;;;7.97;77.12;100772.75;5044473;28;20041;-83
2021/05/24 04:44:22;;;;;;;0.30;0.30;;;;;;;7.99;77.16;100784.94;5049323;28;20045;-83
2021/05/24 04:46:55;;;;;;;0.20;0.20;;;;;;;8.04;77.53;100789.59;5040492;28;20417;-84
2021/05/24 04:49:27;;;;;;;0.43;0.30;;;;;;;7.81;78.00;100785.34;5039999;28;20056;-83
2021/05/24 04:52:01;;;;;;;0.40;0.40;;;;;;;7.83;76.71;100765.03;5034942;28;20069;-83
2021/05/24 04:55:05;;;;;;;0.30;0.30;;;;;;;7.94;76.88;100774.06;5058949;28;20060;-83
2021/05/24 04:57:39;;;;;;;0.30;0.30;;;;;;;8.00;77.24;100777.63;5035522;28;20054;-83
2021/05/24 05:00:09;;;;;;;0.43;0.43;;;;;;;8.16;75.50;100771.25;5050864;28;20049;-84
2021/05/24 05:02:42;;;;;;;0.20;0.20;;;;;;;8.22;75.94;100777.50;5038656;28;20409;-83
2021/05/24 05:05:15;;;;;;;0.40;0.40;;;;;;;8.30;76.42;100765.34;5035117;28;20049;-83
2021/05/24 05:07:48;;;;;;;0.30;0.30;;;;;;;9.37;73.80;100780.44;5044257;28;20409;-83
2021/05/24 05:11:22;;;;;;;0.40;0.40;;;;;;;11.82;65.51;100767.38;5041304;28;20041;-83
2021/05/24 05:13:56;;;;;;;0.40;0.40;;;;;;;12.83;59.72;100760.31;5038959;28;20045;-84
2021/05/24 05:16:28;;;;;;;0.60;0.60;;;;;;;13.76;60.01;100759.81;5036885;28;20053;-84
2021/05/24 05:18:59;;;;;;;0.50;0.50;;;;;;;13.84;57.21;100761.84;5033137;28;20049;-84
2021/05/24 05:21:27;;;;;;;0.30;0.30;;;;;;;14.16;56.28;100770.34;5044036;28;20049;-84
2021/05/24 05:23:55;;;;;;;0.30;0.30;;;;;;;15.36;53.88;100727.28;5039442;28;20045;-84
2021/05/24 05:26:22;;;;;;;0.43;0.43;;;;;;;16.03;51.11;100749.53;5044857;28;20045;-82
2021/05/24 05:28:56;;;;;;;0.50;0.40;;;;;;;15.41;51.89;100754.59;5034811;28;20072;-83
2021/05/24 05:31:29;;;;;;;0.38;0.38;;;;;;;14.78;52.97;100745.31;5044847;28;20045;-83
2021/05/24 05:34:02;;;;;;;0.40;0.40;;;;;;;15.37;52.84;100741.81;5037323;28;20048;-84
2021/05/24 05:36:37;;;;;;;0.35;0.35;;;;;;;14.45;53.79;100748.94;5038217;28;20049;-82
2021/05/24 05:39:09;;;;;;;0.30;0.30;;;;;;;13.23;58.76;100752.66;5044684;28;20049;-83
2021/05/24 05:41:37;;;;;;;0.30;0.30;;;;;;;12.16;60.91;100750.19;5041786;28;20409;-83
2021/05/24 05:44:11;;;;;;;0.25;0.25;;;;;;;12.63;61.53;100745.81;5035886;28;20052;-83
2021/05/24 05:46:44;;;;;;;0.28;0.28;;;;;;;12.16;61.51;100744.72;5038268;28;20053;-83
2021/05/24 05:49:12;;;;;;;0.40;0.40;;;;;;;11.89;62.38;100748.75;5044902;28;20046;-83
2021/05/24 05:51:44;;;;;;;0.20;0.20;;;;;;;11.76;65.66;100747.50;5038579;28;20056;-82
2021/05/24 05:54:17;;;;;;;0.20;0.20;;;;;;;11.71;64.33;100734.75;5048579;28;20041;-82
2021/05/24 05:56:50;;;;;;;0.65;0.30;;;;;;;11.59;65.19;100734.31;5042742;28;20049;-83
2021/05/24 05:59:23;;;;;;;0.30;0.30;;;;;;;11.54;66.66;100734.34;5032313;28;20045;-83
2021/05/24 06:01:56;;;;;;;0.20;0.20;;;;;;;11.60;65.86;100733.22;5043636;28;20056;-83
2021/05/24 06:04:32;;;;;;;0.40;0.40;;;;;;;11.88;64.84;100738.97;5047684;28;20042;-83
2021/05/24 06:07:00;;;;;;;0.20;0.20;;;;;;;11.90;65.39;100743.03;5051492;28;20049;-82
2021/05/24 06:09:33;;;;;;;0.20;0.20;;;;;;;11.91;64.53;100736.47;5043044;28;20405;-82
2021/05/24 06:12:07;;;;;;;0.32;0.32;;;;;;;11.95;65.25;100722.31;5039939;28;20517;-82
2021/05/24 06:15:34;;;;;;;0.20;0.20;;;;;;;12.10;62.45;100732.22;5034659;28;20045;-82
2021/05/24 06:18:03;;;;;;;0.30;0.30;;;;;;;12.08;65.66;100721.59;5060557;28;20052;-82
2021/05/24 06:20:31;;;;;;;0.30;0.30;;;;;;;12.19;66.15;100744.13;5040114;28;20049;-82
2021/05/24 06:23:04;;;;;;;0.20;0.20;;;;;;;12.13;65.95;100740.66;5040968;28;20041;-83
2021/05/24 06:25:37;;;;;;;0.32;0.32;;;;;;;12.20;65.22;100729.41;5037232;28;20056;-83
2021/05/24 06:28:11;;;;;;;0.70;0.70;;;;;;;12.25;63.56;100729.34;5039717;28;20045;-81
2021/05/24 06:30:41;;;;;;;0.20;0.20;;;;;;;12.40;63.90;100725.59;5050364;28;20586;-81
2021/05/24 06:33:14;;;;;;;0.20;0.20;;;;;;;12.39;64.93;100721.28;5047858;28;20068;-81
2021/05/24 06:35:48;;;;;;;0.30;0.30;;;;;;;12.48;66.67;100719.50;5055084;28;20125;-82
2021/05/24 06:38:33;;;;;;;0.30;0.30;;;;;;;12.62;64.81;100714.16;5043516;28;20843;-82
2021/05/24 06:41:06;;;;;;;0.20;0.20;;;;;;;12.66;64.12;100726.09;5049852;28;20255;-82
2021/05/24 06:47:23;;;;;;;0.30;0.30;;;;;;;13.08;61.05;100723.66;5035276;28;20060;-84
2021/05/24 06:49:56;;;;;;;0.20;0.20;;;;;;;13.03;63.37;100721.00;5045081;28;20052;-83
2021/05/24 06:52:29;;;;;;;0.20;0.20;;;;;;;13.19;63.30;100727.06;5048292;28;20052;-82
2021/05/24 06:58:25;;;;;;;0.30;0.30;;;;;;;13.15;62.61;100726.81;5038172;28;20056;-83
2021/05/24 07:01:47;;;;;;;0.38;0.30;;;;;;;13.27;64.24;100723.63;5051656;28;20052;-82
2021/05/24 07:04:23;;;;;;;0.30;0.30;;;;;;;13.53;63.66;100712.31;5046235;28;20043;-82
2021/05/24 07:06:52;;;;;;;0.30;0.30;;;;;;;13.25;62.17;100674.72;5042025;28;20045;-82
2021/05/24 07:09:31;;;;;;;0.20;0.20;;;;;;;13.71;62.04;100706.00;5056781;28;20378;-83
2021/05/24 07:11:59;;;;;;;0.25;0.25;;;;;;;13.74;61.83;100685.44;5045925;28;20055;-82
2021/05/24 07:15:00;;;;;;;0.22;0.20;;;;;;;13.95;60.17;100702.28;5063178;28;20037;-83
2021/05/24 07:17:33;;;;;;;0.30;0.30;;;;;;;13.90;60.83;100681.28;5042028;28;20049;-83
2021/05/24 07:20:29;;;;;;;0.40;0.40;;;;;;;14.11;60.29;100689.13;5051845;28;20041;-83
2021/05/24 07:23:03;;;;;;;0.30;0.30;;;;;;;14.08;60.46;100697.94;5055098;28;20507;-82
2021/05/24 07:29:17;;;;;;;0.30;0.30;;;;;;;14.23;61.45;100674.94;5044104;28;20049;-83
2021/05/24 07:32:17;;;;;;;0.40;0.40;;;;;;;14.40;61.36;100675.16;5044751;28;20080;-83
2021/05/24 07:34:58;;;;;;;0.22;0.22;;;;;;;14.56;62.48;100674.81;5045742;28;20048;-82
2021/05/24 07:37:30;;;;;;;0.20;0.20;;;;;;;14.70;60.39;100641.94;5043803;28;20489;-83
2021/05/24 07:40:12;;;;;;;0.40;0.40;;;;;;;14.67;60.44;100656.28;5050243;28;20040;-82
2021/05/24 07:43:05;;;;;;;0.32;0.32;;;;;;;14.76;57.86;100657.97;5037266;28;20045;-82
2021/05/24 07:49:06;;;;;;;0.20;0.20;;;;;;;15.06;59.65;100658.34;5037992;28;20057;-83
2021/05/24 07:51:39;;;;;;;0.50;0.50;;;;;;;15.14;59.30;100654.88;5049768;28;20049;-83
2021/05/24 07:54:38;;;;;;;0.30;0.30;;;;;;;15.24;61.00;100650.25;5049152;28;20052;-83
2021/05/24 07:57:19;;;;;;;0.30;0.30;;;;;;;15.22;58.93;100641.53;5038916;28;20413;-89
2021/05/24 08:04:13;;;;;;;0.30;0.30;;;;;;;15.58;57.17;100655.16;5043795;28;20056;-84
2021/05/24 08:06:43;;;;;;;0.20;0.20;;;;;;;15.65;56.25;100654.72;5041219;28;20056;-83
2021/05/24 08:10:17;;;;;;;0.20;0.20;;;;;;;15.65;56.82;100633.56;5051228;28;20720;-84
2021/05/24 08:12:52;;;;;;;0.30;0.30;;;;;;;15.75;56.93;100646.19;5054666;28;20044;-84
2021/05/24 08:15:29;;;;;;;0.30;0.30;;;;;;;15.76;54.55;100627.81;5055646;28;20053;-84
2021/05/24 08:18:08;;;;;;;0.20;0.20;;;;;;;15.65;56.38;100617.09;5051984;28;20041;-84
2021/05/24 08:20:37;;;;;;;0.38;0.38;;;;;;;15.84;56.34;100629.00;5049339;28;20053;-84
2021/05/24 08:23:24;;;;;;;0.30;0.30;;;;;;;15.97;55.37;100628.09;5054091;28;20052;-84
2021/05/24 08:25:55;;;;;;;0.40;0.40;;;;;;;16.04;56.63;100620.19;5052682;28;20045;-83
2021/05/24 08:28:28;;;;;;;0.20;0.20;;;;;;;16.19;53.96;100615.41;5051580;28;20057;-85
2021/05/24 08:31:02;;;;;;;0.80;0.40;;;;;;;16.24;54.16;100602.31;5052859;28;20052;-85
2021/05/24 08:33:35;;;;;;;0.30;0.30;;;;;;;16.24;53.78;100609.75;5052290;28;20053;-84
2021/05/24 08:36:08;;;;;;;0.15;0.15;;;;;;;16.44;54.82;100614.63;5054132;28;20587;-85
2021/05/24 08:38:42;;;;;;;0.30;0.30;;;;;;;16.46;55.06;100608.81;5054945;28;20052;-86
2021/05/24 08:41:16;;;;;;;0.20;0.20;;;;;;;16.24;52.32;100615.22;5056048;28;20067;-83
2021/05/24 08:43:49;;;;;;;0.30;0.30;;;;;;;16.35;53.28;100604.75;5051154;28;20076;-85
2021/05/24 08:46:25;;;;;;;0.30;0.30;;;;;;;16.43;54.74;100615.78;5049521;28;20048;-83
2021/05/24 08:48:56;;;;;;;0.30;0.30;;;;;;;16.29;53.32;100599.41;5052352;28;20056;-84
2021/05/24 08:51:56;;;;;;;0.30;0.30;;;;;;;16.31;50.94;100610.91;5053876;28;20059;-84
2021/05/24 08:54:37;;;;;;;0.55;0.40;;;;;;;16.48;53.84;100612.06;5052601;28;20044;-85
2021/05/24 08:57:10;;;;;;;0.40;0.38;;;;;;;16.64;54.21;100598.63;5052905;28;20057;-88
2021/05/24 09:00:05;;;;;;;0.30;0.30;;;;;;;16.81;53.50;100598.66;5053847;28;20666;-84
2021/05/24 09:03:14;;;;;;;0.30;0.30;;;;;;;16.80;54.77;100598.97;5052747;28;20056;-84
2021/05/24 09:06:09;;;;;;;0.40;0.40;;;;;;;16.91;52.31;100602.22;5052471;28;20052;-85
2021/05/24 09:08:43;;;;;;;0.20;0.20;;;;;;;16.90;50.28;100587.66;5049529;28;20041;-83
2021/05/24 09:11:26;;;;;;;0.30;0.30;;;;;;;17.14;52.86;100587.16;5051573;28;20497;-83
2021/05/24 09:14:01;;;;;;;0.20;0.20;;;;;;;17.20;52.31;100584.25;5050411;28;20080;-85
2021/05/24 09:16:37;;;;;;;0.20;0.20;;;;;;;17.30;52.53;100597.63;5053116;28;20055;-85
2021/05/24 09:19:37;;;;;;;0.20;0.20;;;;;;;17.17;49.43;100585.69;5022000;28;20049;-83
2021/05/24 09:22:14;;;;;;;0.38;0.38;;;;;;;17.26;53.43;100577.41;5050870;28;20158;-82
2021/05/24 09:25:12;;;;;;;0.40;0.40;;;;;;;17.25;51.80;100584.88;5057810;28;20124;-85
2021/05/24 09:28:05;;;;;;;0.20;0.20;;;;;;;17.41;50.55;100576.88;5052634;28;20052;-84
2021/05/24 09:30:52;;;;;;;0.20;0.20;;;;;;;17.54;49.45;100572.31;5053699;28;20041;-85
2021/05/24 09:33:25;;;;;;;;;;;;;;;17.68;49.16;100559.13;5053050;28;20052;-84
2021/05/24 09:36:01;;;;;;;0.40;0.30;;;;;;;17.75;49.55;100557.81;5049627;28;20300;-85
2021/05/24 09:38:38;;;;;;;0.38;0.30;;;;;;;17.87;49.85;100544.16;5050378;28;20041;-83
2021/05/24 09:41:10;;;;;;;0.20;0.20;;;;;;;17.89;49.14;100546.59;5049577;28;20045;-84
2021/05/24 09:43:52;;;;;;;0.30;0.30;;;;;;;17.93;49.83;100544.81;5056035;28;20057;-83
2021/05/24 09:46:27;;;;;;;0.52;0.30;;;;;;;18.29;49.82;100551.69;5052532;28;20390;-85
2021/05/24 09:49:03;;;;;;;0.20;0.20;;;;;;;18.26;49.27;100544.91;5049174;28;20547;-84
2021/05/24 09:51:38;;;;;;;0.25;0.25;;;;;;;17.62;48.53;100545.88;5048776;28;20067;-85
2021/05/24 09:54:13;;;;;;;0.20;0.20;;;;;;;17.50;47.74;100541.91;5052029;28;20056;-85
2021/05/24 09:56:48;;;;;;;0.20;0.20;;;;;;;17.56;48.09;100531.50;5053619;28;20076;-83
2021/05/24 09:59:17;;;;;;;0.10;0.10;;;;;;;17.93;48.95;100531.84;5052398;28;20060;-85
2021/05/24 10:01:57;;;;;;;0.20;0.20;;;;;;;18.31;51.49;100503.38;5048565;28;20048;-84
2021/05/24 10:04:38;;;;;;;0.20;0.20;;;;;;;18.07;47.16;100531.59;5050874;28;20068;-83
2021/05/24 10:07:07;;;;;;;0.20;0.20;;;;;;;18.17;49.56;100527.63;5049079;28;20060;-83
2021/05/24 10:09:49;;;;;;;0.30;0.28;;;;;;;18.59;43.85;100507.50;5048484;28;20052;-85
2021/05/24 10:12:19;;;;;;;0.15;0.15;;;;;;;17.90;46.33;100520.63;5048803;28;20416;-85
2021/05/24 10:18:40;;;;;;;0.30;0.25;;;;;;;17.54;51.60;100522.81;5051789;28;20053;-83
2021/05/24 10:21:40;;;;;;;0.22;0.22;;;;;;;17.92;51.09;100521.16;5047535;28;20068;-84
2021/05/24 10:24:23;;;;;;;0.20;0.20;;;;;;;17.74;49.40;100509.41;5047316;28;20056;-84
2021/05/24 10:26:54;;;;;;;0.60;0.50;;;;;;;17.45;47.93;100503.56;5050978;28;20052;-84
2021/05/24 10:29:30;;;;;;;0.45;0.43;;;;;;;17.24;49.48;100488.94;5051156;28;20048;-85
2021/05/24 10:32:08;;;;;;;0.30;0.30;;;;;;;17.56;47.81;100495.75;5049760;28;20055;-84
2021/05/24 10:34:43;;;;;;;0.20;0.20;;;;;;;18.00;50.87;100495.53;5048008;28;20053;-83
2021/05/24 10:37:18;;;;;;;0.15;0.15;;;;;;;18.26;49.04;100502.78;5048274;28;20056;-85
2021/05/24 10:39:48;;;;;;;0.20;0.20;;;;;;;17.73;48.00;100492.13;5048936;28;21489;-83
2021/05/24 10:42:35;;;;;;;0.20;0.20;;;;;;;17.07;47.15;100498.88;5051116;28;20061;-84
2021/05/24 10:45:15;;;;;;;0.20;0.20;;;;;;;17.50;49.06;100491.59;5050237;28;20061;-84
2021/05/24 10:47:53;;;;;;;0.32;0.32;;;;;;;18.01;48.18;100480.63;5047137;28;20050;-84
2021/05/24 10:50:28;;;;;;;;;;;;;;;18.38;45.21;100482.75;5048203;28;20052;-87
2021/05/24 10:53:00;;;;;;;0.20;0.20;;;;;;;18.77;47.35;100472.34;5044393;28;19929;-83
2021/05/24 10:55:40;;;;;;;0.20;0.20;;;;;;;18.83;45.71;100480.03;5048334;28;20057;-84
2021/05/24 10:58:16;;;;;;;0.10;0.10;;;;;;;19.02;47.24;100484.25;5045596;28;20304;-84
2021/05/24 11:00:55;;;;;;;0.30;0.30;;;;;;;18.64;45.00;100464.03;5037462;28;20065;-83
2021/05/24 11:03:32;;;;;;;0.20;0.20;;;;;;;18.08;47.45;100469.06;5049962;28;20555;-83
2021/05/24 11:06:11;;;;;;;0.20;0.20;;;;;;;18.23;45.79;100462.94;5046737;28;20041;-83
2021/05/24 11:08:51;;;;;;;0.20;0.20;;;;;;;18.87;45.88;100458.09;5057414;28;20705;-82
2021/05/24 11:11:24;;;;;;;0.30;0.30;;;;;;;19.01;46.33;100455.84;5041193;28;20049;-84
2021/05/24 11:13:59;;;;;;;0.38;0.28;;;;;;;19.22;44.99;100443.91;5044805;28;20059;-83
2021/05/24 11:16:35;;;;;;;0.20;0.20;;;;;;;19.37;42.02;100431.38;5046191;28;20161;-84
2021/05/24 11:19:10;;;;;;;0.20;0.20;;;;;;;19.67;44.50;100439.41;5045319;28;20048;-81
2021/05/24 11:21:49;;;;;;;0.10;0.10;;;;;;;19.97;45.39;100436.38;5043404;28;20064;-84
2021/05/24 11:24:36;;;;;;;0.20;0.20;;;;;;;19.41;42.39;100426.78;5049346;28;20501;-82
2021/05/24 11:27:09;;;;;;;;;;;;;;;19.32;44.61;100421.41;5045817;28;20053;-82
2021/05/24 11:29:43;;;;;;;0.20;0.20;;;;;;;19.29;42.03;100419.34;5050012;28;20380;-83
2021/05/24 11:32:21;;;;;;;0.20;0.20;;;;;;;19.61;40.88;100429.75;5048861;28;20508;-84
2021/05/24 11:34:51;;;;;;;0.10;0.10;;;;;;;19.07;41.73;100419.78;5049555;28;20044;-82
2021/05/24 11:37:20;;;;;;;0.25;0.25;;;;;;;19.26;43.74;100420.00;5062287;28;20052;-84
2021/05/24 11:39:56;;;;;;;0.10;0.10;;;;;;;19.80;42.65;100420.88;5048032;28;20040;-85
2021/05/24 11:42:32;;;;;;;0.13;0.13;;;;;;;19.32;40.70;100412.28;5051576;28;20060;-83
2021/05/24 11:45:17;;;;;;;0.30;0.30;;;;;;;18.73;41.76;100408.00;5050813;28;20732;-84
2021/05/24 11:47:55;;;;;;;0.20;0.20;;;;;;;18.41;42.76;100411.25;5050432;28;20366;-83
2021/05/24 11:50:28;;;;;;;0.10;0.10;;;;;;;18.25;44.28;100402.00;5050609;28;20052;-82
2021/05/24 11:53:01;;;;;;;0.20;0.20;;;;;;;17.78;41.95;100411.28;5045228;28;20053;-84
2021/05/24 11:55:30;;;;;;;0.10;0.10;;;;;;;17.80;43.86;100398.81;5056240;28;20084;-82
2021/05/24 11:58:11;;;;;;;0.20;0.20;;;;;;;18.37;44.10;100396.53;5051668;28;20059;-83
2021/05/24 12:00:44;;;;;;;0.20;0.20;;;;;;;18.25;44.28;100388.25;5051893;28;20060;-84
2021/05/24 12:03:16;;;;;;;0.65;0.30;;;;;;;18.07;43.05;100391.16;5045874;28;20048;-83
2021/05/24 12:06:06;;;;;;;0.10;0.10;;;;;;;17.75;44.97;100379.72;5048793;28;20054;-83
2021/05/24 12:08:41;;;;;;;0.20;0.20;;;;;;;18.68;44.45;100370.44;5051474;28;20056;-83
2021/05/24 12:11:15;;;;;;;0.10;0.10;;;;;;;19.44;41.56;100375.63;5047984;28;20064;-82
2021/05/24 12:13:56;;;;;;;0.10;0.10;;;;;;;19.74;38.05;100381.66;5051318;28;20059;-82
2021/05/24 12:16:31;;;;;;;0.20;0.20;;;;;;;19.01;41.96;100383.34;5051760;28;20053;-83
2021/05/24 12:19:01;;;;;;;0.30;0.30;;;;;;;18.53;42.59;100378.22;5054817;28;20041;-82
2021/05/24 12:21:40;;;;;;;0.10;0.10;;;;;;;18.11;43.43;100385.78;5054404;28;20448;-82
2021/05/24 12:24:10;;;;;;;0.20;0.20;;;;;;;18.23;43.15;100377.56;5052356;28;20063;-85
2021/05/24 12:26:46;;;;;;;0.20;0.20;;;;;;;18.65;44.09;100371.13;5053012;28;20052;-83
2021/05/24 12:29:29;;;;;;;0.20;0.20;;;;;;;18.78;46.96;100358.16;5054315;28;20068;-83
2021/05/24 12:32:00;;;;;;;0.20;0.20;;;;;;;18.70;45.24;100340.59;5048387;28;20052;-82
2021/05/24 12:34:38;;;;;;;0.20;0.20;;;;;;;19.31;42.68;100333.47;5050856;28;20048;-82
2021/05/24 12:37:18;;;;;;;0.20;0.20;;;;;;;19.44;43.43;100334.22;5051044;28;20057;-83
2021/05/24 12:39:54;;;;;;;0.20;0.20;;;;;;;18.49;41.84;100344.22;5051198;28;20049;-83
2021/05/24 12:42:27;;;;;;;0.85;0.30;;;;;;;18.88;44.45;100327.41;5048086;28;20052;-83
2021/05/24 12:45:06;;;;;;;0.10;0.10;;;;;;;19.46;42.68;100326.38;5051751;28;20056;-85
2021/05/24 12:47:34;;;;;;;0.20;0.20;;;;;;;19.90;41.18;100325.69;5047561;28;20058;-82
2021/05/24 12:50:12;;;;;;;0.20;0.20;;;;;;;19.83;41.41;100296.75;5052710;28;20052;-84
2021/05/24 12:52:40;;;;;;;0.20;0.20;;;;;;;20.10;41.23;100313.63;5043471;28;20052;-83
2021/05/24 12:55:17;;;;;;;0.20;0.20;;;;;;;20.33;39.88;100302.00;5048634;28;20044;-82
2021/05/24 12:57:53;;;;;;;0.20;0.20;;;;;;;19.93;38.38;100305.66;5048781;28;20057;-83
2021/05/24 13:00:25;;;;;;;0.13;0.13;;;;;;;19.30;41.59;100307.81;5051950;28;20044;-80
2021/05/24 13:02:53;;;;;;;0.20;0.20;;;;;;;19.12;39.58;100303.72;5050338;28;20059;-82
2021/05/24 13:05:28;;;;;;;0.20;0.20;;;;;;;18.95;41.15;100307.53;5052556;28;20122;-84
2021/05/24 13:08:03;;;;;;;0.20;0.20;;;;;;;19.28;42.75;100299.09;5049862;28;20045;-85